Time;durP1;ratioP1;P1;durP2;ratioP2;P2;SDS_P1;SDS_P2;PMS_P1;PMS_P2;Temp;Humidity;BMP_temperature;BMP_pressure;BME280_temperature;BME280_humidity;BME280_pressure;Samples;Min_cycle;Max_cycle;Signal;HPM_P1;HPM_P2
2022/12/27 00:00:07;;;;;;;125.68;69.13;;;11.30;99.90;;;;;;4903471;29;20048;-91
2022/12/27 00:02:40;;;;;;;123.43;75.45;;;11.30;99.90;;;;;;4914509;29;20055;-91
2022/12/27 00:05:08;;;;;;;130.45;70.30;;;11.30;99.90;;;;;;4919007;29;20032;-92
2022/12/27 00:07:36;;;;;;;135.35;80.57;;;11.40;99.90;;;;;;4903068;29;20032;-92
2022/12/27 00:10:04;;;;;;;134.05;81.13;;;11.40;99.90;;;;;;4918893;29;20028;-92
2022/12/27 00:12:30;;;;;;;141.07;80.57;;;11.20;99.90;;;;;;4903153;29;20054;-91
2022/12/27 00:14:57;;;;;;;118.57;69.25;;;11.00;99.90;;;;;;4918787;29;20032;-93
2022/12/27 00:17:24;;;;;;;114.38;68.78;;;10.90;99.90;;;;;;4918853;29;20024;-92
2022/12/27 00:19:53;;;;;;;123.82;70.90;;;10.90;99.90;;;;;;4918771;29;20078;-91
2022/12/27 00:22:20;;;;;;;112.28;64.22;;;10.70;99.90;;;;;;4918384;29;20024;-90
2022/12/27 00:25:02;;;;;;;160.05;81.78;;;10.60;99.90;;;;;;4918610;29;20210;-92
2022/12/27 00:27:29;;;;;;;121.80;65.93;;;10.50;99.90;;;;;;4918497;29;20032;-91
2022/12/27 00:29:55;;;;;;;108.55;62.30;;;10.40;99.90;;;;;;4902926;29;20032;-90
2022/12/27 00:32:22;;;;;;;122.18;64.72;;;10.40;99.90;;;;;;4917475;29;20064;-93
2022/12/27 00:34:48;;;;;;;161.32;76.68;;;10.40;99.90;;;;;;4918364;29;20537;-91
2022/12/27 00:37:15;;;;;;;108.57;61.30;;;10.30;99.90;;;;;;4918525;29;20482;-91
2022/12/27 00:39:42;;;;;;;121.65;65.57;;;10.20;99.90;;;;;;4918257;29;20059;-90
2022/12/27 00:42:08;;;;;;;152.20;76.93;;;10.10;99.90;;;;;;4918218;29;20043;-91
2022/12/27 00:44:35;;;;;;;131.02;70.72;;;10.00;99.90;;;;;;4917963;29;20076;-91
2022/12/27 00:47:01;;;;;;;130.93;72.57;;;9.90;99.90;;;;;;4918362;29;20029;-92
2022/12/27 00:49:28;;;;;;;110.93;64.38;;;9.90;99.90;;;;;;4917985;29;20028;-91
2022/12/27 00:51:55;;;;;;;119.40;67.97;;;9.90;99.90;;;;;;4918116;29;20032;-92
2022/12/27 00:54:21;;;;;;;120.22;65.82;;;9.80;99.90;;;;;;4918231;29;20114;-90
2022/12/27 00:56:48;;;;;;;104.85;63.67;;;9.90;99.90;;;;;;4917826;29;20123;-91
2022/12/27 00:59:20;;;;;;;162.27;85.65;;;10.00;99.90;;;;;;4917944;29;20035;-92
2022/12/27 01:01:47;;;;;;;163.45;85.80;;;10.10;99.90;;;;;;4917971;29;20142;-91
2022/12/27 01:04:14;;;;;;;121.65;69.28;;;10.30;99.90;;;;;;4918055;29;20040;-92
2022/12/27 01:06:41;;;;;;;158.10;88.97;;;10.40;99.90;;;;;;4917856;29;20035;-91
2022/12/27 01:09:07;;;;;;;149.40;81.32;;;10.50;99.90;;;;;;4917900;29;20032;-91
2022/12/27 01:11:34;;;;;;;129.63;73.70;;;10.40;99.90;;;;;;4917602;29;20092;-92
2022/12/27 01:14:03;;;;;;;172.00;90.00;;;10.50;99.90;;;;;;4917491;29;20035;-91
2022/12/27 01:16:31;;;;;;;156.23;84.95;;;10.60;99.90;;;;;;4917624;29;20504;-91
2022/12/27 01:18:59;;;;;;;187.43;93.65;;;10.70;99.90;;;;;;4917675;29;20036;-91
2022/12/27 01:21:26;;;;;;;154.05;82.07;;;10.80;99.90;;;;;;4902196;29;20028;-92
2022/12/27 01:23:54;;;;;;;140.35;78.85;;;10.90;99.90;;;;;;4901774;29;20497;-91
2022/12/27 01:26:21;;;;;;;139.73;78.65;;;10.90;99.90;;;;;;4917631;29;20051;-91
2022/12/27 01:28:49;;;;;;;150.90;83.30;;;10.90;99.90;;;;;;4917597;29;20491;-91
2022/12/27 01:31:19;;;;;;;146.27;79.50;;;10.90;99.90;;;;;;4917474;29;20032;-92
2022/12/27 01:33:46;;;;;;;139.82;73.22;;;10.90;99.90;;;;;;4917374;29;20498;-92
2022/12/27 01:36:23;;;;;;;130.35;71.60;;;11.00;99.90;;;;;;4901656;29;20036;-91
2022/12/27 01:38:50;;;;;;;120.93;70.63;;;11.00;99.90;;;;;;4917387;29;20537;-90
2022/12/27 01:44:37;;;;;;;133.10;74.43;;;11.10;99.90;;;;;;4900877;29;20056;-91
2022/12/27 01:47:44;;;;;;;127.60;73.20;;;11.10;99.90;;;;;;4845069;29;20069;-92
2022/12/27 01:50:25;;;;;;;126.85;66.90;;;11.20;99.90;;;;;;4820385;29;20088;-93
2022/12/27 01:53:25;;;;;;;123.53;65.00;;;11.30;99.90;;;;;;4845017;29;20556;-91
2022/12/27 01:56:03;;;;;;;126.80;69.68;;;11.30;99.90;;;;;;4830100;29;20040;-91
2022/12/27 01:58:47;;;;;;;125.82;68.07;;;11.40;99.90;;;;;;4829921;29;20033;-92
2022/12/27 02:01:19;;;;;;;121.78;67.55;;;11.40;99.90;;;;;;4829711;29;20187;-92
2022/12/27 02:04:25;;;;;;;;;;;;;;;;;;;;;
2022/12/27 02:07:01;;;;;;;121.80;66.30;;;11.40;99.90;;;;;;4866677;29;20042;-95
2022/12/27 02:10:40;;;;;;;;;;;;;;;;;;;;;
2022/12/27 02:14:09;;;;;;;104.43;58.60;;;11.50;99.90;;;;;;4801126;29;20067;-94
2022/12/27 02:54:18;;;;;;;97.60;51.00;;;12.10;99.90;;;;;;4901240;29;20052;-92
2022/12/27 02:57:09;;;;;;;94.55;50.55;;;12.10;99.90;;;;;;4869252;29;20134;-93
2022/12/27 03:03:54;;;;;;;;;;;;;;;;;;;;;
2022/12/27 03:07:25;;;;;;;109.50;50.63;;;12.00;99.90;;;;;;4893553;29;20096;-93
2022/12/27 03:16:59;;;;;;;91.40;45.72;;;12.20;99.90;;;;;;4852496;29;20078;-94
2022/12/27 03:25:29;;;;;;;77.75;42.75;;;12.40;99.90;;;;;;4851166;29;20070;-93
2022/12/27 03:34:30;;;;;;;73.93;41.40;;;12.30;99.90;;;;;;4851154;29;20112;-93
2022/12/27 03:39:41;;;;;;;76.00;39.75;;;12.10;99.90;;;;;;4853249;29;19913;-94
2022/12/27 03:45:14;;;;;;;80.20;39.60;;;12.10;99.90;;;;;;4851679;29;20045;-93
2022/12/27 03:48:02;;;;;;;65.53;38.28;;;12.10;99.90;;;;;;4835399;29;20033;-94
2022/12/27 03:50:45;;;;;;;78.75;42.03;;;12.10;99.90;;;;;;4861942;29;20428;-93
2022/12/27 03:53:26;;;;;;;78.25;41.15;;;12.10;99.90;;;;;;4893747;29;20495;-93
2022/12/27 03:56:04;;;;;;;74.60;39.85;;;12.00;99.90;;;;;;4907563;29;20104;-94
2022/12/27 03:58:39;;;;;;;78.20;42.17;;;12.00;99.90;;;;;;4891467;29;20033;-94
2022/12/27 04:01:18;;;;;;;81.07;40.38;;;11.90;99.90;;;;;;4891906;29;20036;-93
2022/12/27 04:03:55;;;;;;;71.78;40.58;;;11.90;99.90;;;;;;4890502;29;20045;-94
2022/12/27 04:06:35;;;;;;;70.60;38.50;;;11.80;99.90;;;;;;4890386;29;20025;-93
2022/12/27 04:36:57;;;;;;;93.00;45.95;;;11.00;99.90;;;;;;4890352;29;20036;-92
2022/12/27 04:39:23;;;;;;;92.15;43.58;;;10.90;99.90;;;;;;4901738;29;20036;-93
2022/12/27 04:56:07;;;;;;;;;;;;;;;;;;;;;
2022/12/27 05:19:21;;;;;;;86.95;39.95;;;11.00;99.90;;;;;;4901336;29;20061;-92
2022/12/27 05:27:08;;;;;;;91.55;43.22;;;11.10;99.90;;;;;;4904350;29;20087;-92
2022/12/27 05:29:40;;;;;;;96.75;48.35;;;11.10;99.90;;;;;;4906055;29;20051;-93
2022/12/27 05:32:07;;;;;;;98.85;49.17;;;11.20;99.90;;;;;;4901807;29;20029;-92
2022/12/27 05:34:34;;;;;;;93.80;46.67;;;11.30;99.90;;;;;;4887083;29;20037;-93
2022/12/27 05:37:10;;;;;;;94.97;46.03;;;11.30;99.90;;;;;;4873554;29;20036;-94
2022/12/27 05:39:42;;;;;;;86.85;43.67;;;11.40;99.90;;;;;;4889558;29;20033;-94
2022/12/27 05:42:09;;;;;;;97.78;46.30;;;11.40;99.90;;;;;;4888811;29;20112;-92
2022/12/27 05:44:39;;;;;;;90.38;44.15;;;11.40;99.90;;;;;;4888517;29;20037;-93
2022/12/27 05:47:05;;;;;;;84.75;42.50;;;11.30;99.90;;;;;;4870491;29;20029;-94
2022/12/27 05:49:47;;;;;;;85.50;42.20;;;11.30;99.90;;;;;;4877374;29;20044;-93
2022/12/27 05:52:16;;;;;;;95.70;45.63;;;11.30;99.90;;;;;;4893170;29;20036;-94
2022/12/27 05:54:46;;;;;;;86.78;40.65;;;11.30;99.90;;;;;;4892805;29;20191;-94
2022/12/27 05:57:22;;;;;;;88.07;41.03;;;11.20;99.90;;;;;;4891179;29;20043;-94
2022/12/27 05:59:52;;;;;;;85.53;41.13;;;11.30;99.90;;;;;;4891618;29;20037;-93
2022/12/27 06:09:41;;;;;;;88.03;42.67;;;11.10;99.90;;;;;;5171627;23;20076;-92
2022/12/27 06:24:08;;;;;;;94.55;44.45;;;10.80;99.90;;;;;;4907828;29;20069;-94
2022/12/27 06:26:34;;;;;;;93.07;42.28;;;10.80;99.90;;;;;;4904401;29;20032;-93
2022/12/27 06:29:01;;;;;;;98.82;46.33;;;10.70;99.90;;;;;;4886975;29;20036;-93
2022/12/27 06:31:28;;;;;;;103.82;45.67;;;10.80;99.90;;;;;;4889235;29;20029;-93
2022/12/27 06:33:56;;;;;;;94.80;43.50;;;10.80;99.90;;;;;;4889759;29;20035;-93
2022/12/27 06:36:27;;;;;;;98.85;46.13;;;10.90;99.90;;;;;;4904643;29;20037;-92
2022/12/27 06:38:55;;;;;;;106.00;50.55;;;10.90;99.90;;;;;;4906370;29;20095;-93
2022/12/27 06:41:22;;;;;;;95.38;48.17;;;11.00;99.90;;;;;;4888080;29;20035;-93
2022/12/27 06:43:54;;;;;;;104.63;46.13;;;11.00;99.90;;;;;;4887892;29;20049;-93
2022/12/27 06:46:24;;;;;;;99.20;45.17;;;11.10;99.90;;;;;;4904134;29;20063;-93
2022/12/27 06:48:51;;;;;;;81.95;40.58;;;11.30;99.90;;;;;;4887707;29;20128;-94
2022/12/27 06:51:22;;;;;;;76.20;37.13;;;11.70;99.90;;;;;;4887146;29;20431;-93
2022/12/27 06:53:49;;;;;;;54.33;30.58;;;12.00;99.90;;;;;;4904953;29;20041;-94
2022/12/27 06:56:21;;;;;;;71.57;30.63;;;12.30;99.90;;;;;;4892014;29;20028;-94
2022/12/27 06:58:49;;;;;;;43.40;27.02;;;12.20;99.90;;;;;;4889283;29;20048;-93
2022/12/27 07:01:21;;;;;;;45.58;25.75;;;12.20;99.90;;;;;;4888988;29;20029;-93
2022/12/27 07:03:53;;;;;;;46.40;27.33;;;12.20;99.90;;;;;;4888018;29;20041;-93
2022/12/27 07:06:20;;;;;;;35.38;23.50;;;12.40;99.90;;;;;;4888953;29;20052;-93
2022/12/27 07:08:48;;;;;;;44.17;26.70;;;12.40;99.90;;;;;;4889311;29;20036;-94
2022/12/27 07:11:17;;;;;;;43.47;25.08;;;12.50;99.90;;;;;;4888434;29;20028;-93
2022/12/27 07:13:48;;;;;;;43.03;25.60;;;12.50;99.90;;;;;;4905499;29;20032;-93
2022/12/27 07:16:18;;;;;;;40.10;25.60;;;12.60;99.90;;;;;;4889542;29;20051;-93
2022/12/27 07:18:45;;;;;;;45.58;25.58;;;12.70;99.90;;;;;;4905898;29;20036;-94
2022/12/27 07:21:20;;;;;;;38.00;26.17;;;12.70;99.90;;;;;;4889128;29;20483;-93
2022/12/27 07:23:47;;;;;;;45.35;28.45;;;12.90;99.90;;;;;;4904821;29;20083;-92
2022/12/27 07:26:17;;;;;;;43.45;27.45;;;13.00;99.90;;;;;;4904422;29;20035;-93
2022/12/27 07:28:44;;;;;;;38.85;25.63;;;13.00;99.90;;;;;;4904238;29;20032;-93
2022/12/27 07:31:19;;;;;;;29.27;22.23;;;13.10;99.90;;;;;;4906304;29;20021;-94
2022/12/27 07:33:46;;;;;;;29.77;23.85;;;13.10;99.90;;;;;;4904410;29;20033;-94
2022/12/27 07:36:23;;;;;;;35.97;27.25;;;13.30;99.90;;;;;;4902763;29;20025;-93
2022/12/27 07:38:53;;;;;;;27.15;22.00;;;13.50;99.90;;;;;;4901585;29;20033;-93
2022/12/27 07:41:20;;;;;;;30.38;24.25;;;13.70;99.90;;;;;;4905545;29;20029;-93
2022/12/27 07:43:47;;;;;;;28.30;24.95;;;13.80;99.90;;;;;;4904028;29;20044;-94
2022/12/27 07:46:20;;;;;;;31.98;25.85;;;13.70;99.90;;;;;;4907218;29;20040;-92
2022/12/27 07:48:47;;;;;;;33.00;27.50;;;13.80;99.90;;;;;;4903474;29;20123;-93
2022/12/27 07:51:15;;;;;;;33.70;29.05;;;14.10;99.90;;;;;;4903111;29;20032;-93
2022/12/27 07:53:42;;;;;;;40.03;29.55;;;14.20;99.90;;;;;;4902904;29;20289;-94
2022/12/27 07:56:21;;;;;;;38.53;28.25;;;14.40;99.90;;;;;;4904903;29;20052;-94
2022/12/27 07:58:49;;;;;;;32.25;27.73;;;14.50;99.90;;;;;;4909015;29;20032;-92
2022/12/27 08:01:20;;;;;;;34.22;27.38;;;14.60;99.90;;;;;;4918612;29;20029;-92
2022/12/27 08:03:47;;;;;;;32.97;26.85;;;14.60;99.90;;;;;;4911486;29;20037;-94
2022/12/27 08:06:20;;;;;;;39.70;27.60;;;14.80;99.90;;;;;;4908018;29;20032;-95
2022/12/27 08:08:54;;;;;;;32.47;26.95;;;14.90;99.90;;;;;;4906545;29;20056;-94
2022/12/27 08:11:22;;;;;;;31.50;25.40;;;15.00;99.90;;;;;;4904643;29;20032;-94
2022/12/27 08:13:54;;;;;;;32.92;25.98;;;14.90;99.90;;;;;;4905192;29;20032;-94
2022/12/27 08:16:23;;;;;;;34.08;26.58;;;15.00;99.90;;;;;;4905764;29;20044;-94
2022/12/27 08:18:51;;;;;;;33.58;25.55;;;15.10;99.90;;;;;;4907023;29;20028;-94
2022/12/27 08:21:36;;;;;;;33.30;25.42;;;15.20;99.90;;;;;;4904321;29;20029;-94
2022/12/27 08:24:06;;;;;;;32.90;25.17;;;15.20;99.90;;;;;;4903937;29;20057;-94
2022/12/27 08:26:42;;;;;;;31.13;25.65;;;15.00;99.90;;;;;;4905214;29;20122;-94
2022/12/27 08:29:10;;;;;;;38.28;25.90;;;15.00;99.90;;;;;;4904799;29;20048;-94
2022/12/27 08:31:37;;;;;;;33.80;25.30;;;15.10;99.90;;;;;;4904561;29;20375;-94
2022/12/27 08:34:03;;;;;;;31.15;24.13;;;15.20;99.90;;;;;;4873412;29;20053;-94
2022/12/27 08:36:33;;;;;;;52.28;25.73;;;15.30;99.90;;;;;;4903058;29;20522;-93
2022/12/27 08:39:02;;;;;;;31.83;25.50;;;15.50;99.90;;;;;;4906257;29;20398;-94
2022/12/27 08:41:29;;;;;;;31.00;24.73;;;15.50;99.90;;;;;;4871729;29;20396;-94
2022/12/27 08:43:56;;;;;;;33.67;25.13;;;15.50;99.90;;;;;;4873147;29;20055;-93
2022/12/27 08:46:32;;;;;;;32.20;23.90;;;15.60;99.90;;;;;;4903405;29;20046;-94
2022/12/27 08:48:59;;;;;;;32.03;25.08;;;15.50;99.90;;;;;;4906596;29;20214;-94
2022/12/27 08:52:09;;;;;;;29.10;24.63;;;15.70;99.90;;;;;;4909155;29;20053;-94
2022/12/27 09:31:49;;;;;;;24.52;21.48;;;17.20;99.90;;;;;;1685917;23;20326;-94
2022/12/27 09:34:16;;;;;;;26.08;22.88;;;17.40;99.90;;;;;;4881660;29;20173;-93
2022/12/27 09:36:43;;;;;;;23.75;21.33;;;17.30;99.90;;;;;;4898719;29;20035;-92
2022/12/27 09:39:12;;;;;;;23.75;20.33;;;17.30;99.90;;;;;;4898734;29;20028;-91
2022/12/27 09:41:46;;;;;;;24.48;20.98;;;17.40;99.90;;;;;;4883425;29;20410;-92
2022/12/27 09:44:21;;;;;;;25.83;20.00;;;17.60;99.90;;;;;;4898328;29;20044;-92
2022/12/27 09:46:57;;;;;;;24.45;21.08;;;17.80;99.90;;;;;;4898739;29;20029;-92
2022/12/27 09:49:47;;;;;;;25.60;21.67;;;17.90;99.90;;;;;;4898239;29;20036;-92
2022/12/27 09:52:20;;;;;;;22.17;19.88;;;17.90;99.90;;;;;;4898188;29;20032;-91
2022/12/27 09:55:00;;;;;;;21.77;19.73;;;18.00;99.90;;;;;;4898278;29;20056;-93
2022/12/27 09:57:42;;;;;;;21.13;19.05;;;17.90;99.90;;;;;;4898225;29;20123;-94
2022/12/27 10:00:23;;;;;;;21.05;18.95;;;17.90;99.90;;;;;;4898207;29;20040;-92
2022/12/27 10:02:50;;;;;;;20.67;18.88;;;17.80;99.90;;;;;;4898208;29;20447;-92
2022/12/27 10:05:31;;;;;;;21.27;19.38;;;17.80;99.90;;;;;;4897989;29;20061;-92
2022/12/27 10:08:22;;;;;;;23.38;20.50;;;17.70;99.90;;;;;;4898178;29;20084;-92
2022/12/27 10:11:35;;;;;;;20.52;18.65;;;17.70;99.90;;;;;;4898201;29;20037;-92
2022/12/27 10:14:44;;;;;;;21.10;18.88;;;17.80;99.90;;;;;;4897910;29;20032;-92
2022/12/27 10:17:29;;;;;;;20.27;18.45;;;17.80;99.90;;;;;;4841315;29;20069;-93
2022/12/27 10:20:21;;;;;;;21.83;19.48;;;17.80;99.90;;;;;;4841685;29;20476;-93
2022/12/27 10:22:59;;;;;;;21.52;19.27;;;17.80;99.90;;;;;;4841588;29;20038;-92
2022/12/27 10:25:27;;;;;;;20.75;17.83;;;17.80;99.90;;;;;;4842227;29;20041;-93
2022/12/27 10:28:00;;;;;;;20.10;18.15;;;17.70;99.90;;;;;;4826405;29;20042;-92
2022/12/27 10:30:29;;;;;;;19.60;17.73;;;17.70;99.90;;;;;;4826369;29;20121;-94
2022/12/27 10:32:56;;;;;;;18.73;16.92;;;17.60;99.90;;;;;;4823392;29;20536;-93
2022/12/27 10:35:25;;;;;;;19.10;17.27;;;17.60;99.90;;;;;;4823413;29;20416;-92
2022/12/27 10:37:52;;;;;;;19.05;17.25;;;17.60;99.90;;;;;;4807802;29;20034;-93
2022/12/27 10:40:50;;;;;;;26.15;18.20;;;17.50;99.90;;;;;;4819161;29;20585;-91
2022/12/27 10:43:26;;;;;;;18.13;16.40;;;17.50;99.90;;;;;;4826100;29;20038;-91
2022/12/27 10:45:52;;;;;;;17.77;16.13;;;17.60;99.90;;;;;;4811308;29;20041;-91
2022/12/27 10:48:24;;;;;;;17.70;16.02;;;17.80;99.90;;;;;;4802160;29;20030;-92
2022/12/27 10:51:22;;;;;;;17.83;16.13;;;17.90;99.90;;;;;;4808481;29;20034;-91
2022/12/27 10:53:48;;;;;;;18.60;16.67;;;18.00;99.90;;;;;;4779601;30;20047;-92
2022/12/27 10:56:23;;;;;;;20.08;16.77;;;18.20;99.90;;;;;;4786855;30;20031;-90
2022/12/27 10:58:53;;;;;;;18.83;16.92;;;18.20;99.90;;;;;;4787002;30;20075;-94
2022/12/27 11:01:24;;;;;;;18.92;17.02;;;18.20;99.90;;;;;;4807415;29;20034;-93
2022/12/27 11:04:13;;;;;;;19.30;17.45;;;18.20;99.90;;;;;;4790853;29;20054;-93
2022/12/27 11:06:44;;;;;;;18.75;16.98;;;18.30;99.90;;;;;;4785272;29;20039;-93
2022/12/27 11:09:25;;;;;;;20.23;17.00;;;18.40;99.90;;;;;;4806295;29;20030;-91
2022/12/27 11:12:13;;;;;;;18.52;16.92;;;18.50;99.90;;;;;;4795547;29;20039;-92
2022/12/27 11:14:53;;;;;;;19.73;17.17;;;18.50;99.90;;;;;;4782759;29;20034;-93
2022/12/27 11:17:42;;;;;;;19.48;17.55;;;18.40;99.90;;;;;;4809165;29;20099;-93
2022/12/27 11:20:26;;;;;;;19.60;17.60;;;18.40;99.90;;;;;;4774849;29;20056;-93
2022/12/27 11:23:08;;;;;;;19.50;17.60;;;18.50;99.90;;;;;;4774767;30;20047;-92
2022/12/27 11:25:54;;;;;;;19.17;17.30;;;18.40;99.90;;;;;;4824939;29;20059;-93
2022/12/27 11:28:38;;;;;;;20.77;18.42;;;18.40;99.90;;;;;;4837454;23;20060;-93
2022/12/27 11:31:17;;;;;;;19.63;17.58;;;18.30;99.90;;;;;;4887272;29;20123;-94
2022/12/27 11:34:27;;;;;;;20.58;18.13;;;18.20;99.90;;;;;;4885165;29;20498;-94
2022/12/27 11:37:02;;;;;;;19.77;17.80;;;18.20;99.90;;;;;;4863153;29;20036;-92
2022/12/27 11:39:50;;;;;;;19.27;17.25;;;18.20;99.90;;;;;;4866714;29;20039;-93
2022/12/27 11:42:57;;;;;;;18.25;16.48;;;18.20;99.90;;;;;;4867822;29;20132;-94
2022/12/27 11:46:09;;;;;;;19.33;17.05;;;18.40;99.90;;;;;;4867368;29;20044;-94
2022/12/27 11:52:21;;;;;;;19.52;17.63;;;18.20;99.90;;;;;;5835649;23;20045;-93
2022/12/27 11:55:13;;;;;;;19.95;18.13;;;18.10;99.90;;;;;;4904449;29;20048;-93
2022/12/27 11:58:31;;;;;;;19.70;17.65;;;18.10;99.90;;;;;;4893968;29;20059;-92
2022/12/27 12:01:32;;;;;;;19.50;17.67;;;18.30;99.90;;;;;;4926720;23;20048;-93
2022/12/27 12:04:15;;;;;;;18.60;16.67;;;18.50;99.90;;;;;;4902009;29;20056;-92
2022/12/27 12:07:03;;;;;;;18.67;16.90;;;18.40;99.90;;;;;;4903306;29;20032;-92
2022/12/27 12:10:10;;;;;;;18.58;16.73;;;18.40;99.90;;;;;;4895955;29;20048;-93
2022/12/27 12:13:01;;;;;;;19.40;17.48;;;18.30;99.90;;;;;;4894498;29;20064;-93
2022/12/27 12:16:10;;;;;;;20.02;17.77;;;18.30;99.90;;;;;;4917976;29;20028;-92
2022/12/27 12:19:04;;;;;;;19.27;17.58;;;18.30;99.90;;;;;;4905516;29;20123;-93
2022/12/27 12:22:02;;;;;;;18.45;16.60;;;18.30;99.90;;;;;;4904303;29;20063;-93
2022/12/27 12:24:34;;;;;;;18.05;16.38;;;18.30;99.90;;;;;;4890180;29;20052;-94
2022/12/27 12:27:29;;;;;;;20.15;17.75;;;18.20;99.90;;;;;;4906196;29;20028;-93
2022/12/27 12:30:21;;;;;;;20.42;17.92;;;18.20;99.90;;;;;;4899597;29;20118;-93
2022/12/27 12:33:06;;;;;;;18.95;17.42;;;18.00;99.90;;;;;;4910974;29;20050;-92
2022/12/27 12:35:33;;;;;;;19.35;17.38;;;17.90;99.90;;;;;;4890136;29;20038;-94
2022/12/27 12:38:08;;;;;;;18.98;17.05;;;17.50;99.90;;;;;;4913001;29;20025;-94
2022/12/27 12:40:56;;;;;;;19.08;17.13;;;17.40;99.90;;;;;;4883873;29;20391;-93
2022/12/27 12:43:50;;;;;;;18.75;16.80;;;17.40;99.90;;;;;;4883703;29;20040;-93
2022/12/27 12:46:56;;;;;;;16.00;14.50;;;17.50;99.90;;;;;;4884120;29;20038;-93
2022/12/27 12:50:04;;;;;;;17.42;15.63;;;17.60;99.90;;;;;;4843480;29;20046;-93
2022/12/27 12:52:38;;;;;;;20.23;18.13;;;17.60;99.90;;;;;;4809240;29;20046;-92
2022/12/27 12:55:38;;;;;;;22.10;17.63;;;17.70;99.90;;;;;;4792041;29;20053;-94
2022/12/27 12:58:19;;;;;;;21.60;18.52;;;17.70;99.90;;;;;;4809052;29;20070;-93
2022/12/27 13:01:19;;;;;;;18.88;16.88;;;17.90;99.90;;;;;;4812274;29;20052;-91
2022/12/27 13:04:11;;;;;;;24.60;20.52;;;17.90;99.90;;;;;;4827527;29;20105;-94
2022/12/27 13:06:58;;;;;;;18.88;16.77;;;18.00;99.90;;;;;;4828260;29;20036;-94
2022/12/27 13:09:54;;;;;;;18.48;16.20;;;18.00;99.90;;;;;;4813644;29;20075;-94
2022/12/27 13:12:28;;;;;;;21.25;16.80;;;17.90;99.90;;;;;;4827056;29;20038;-94
2022/12/27 13:15:03;;;;;;;19.40;17.40;;;17.90;99.90;;;;;;4827372;29;20034;-96
2022/12/27 13:17:49;;;;;;;19.02;17.00;;;17.80;99.90;;;;;;4825769;29;20044;-91
2022/12/27 13:20:40;;;;;;;31.42;21.25;;;17.70;99.90;;;;;;4827658;29;20047;-93
2022/12/27 13:23:43;;;;;;;24.30;19.00;;;17.50;99.90;;;;;;4826985;29;20046;-94
2022/12/27 13:26:33;;;;;;;18.98;17.10;;;17.40;99.90;;;;;;4827874;29;20041;-94
2022/12/27 13:29:24;;;;;;;21.92;17.35;;;17.50;99.90;;;;;;4862835;29;20051;-95
2022/12/27 13:32:04;;;;;;;19.92;17.45;;;17.60;99.90;;;;;;4910539;29;20135;-93
2022/12/27 13:34:50;;;;;;;24.48;19.00;;;17.60;99.90;;;;;;4903977;29;20045;-94
2022/12/27 13:37:35;;;;;;;42.58;30.67;;;17.70;99.90;;;;;;4882947;29;20029;-93
2022/12/27 13:40:23;;;;;;;20.15;18.35;;;17.80;99.90;;;;;;4869667;29;20036;-95
2022/12/27 13:43:12;;;;;;;24.42;20.10;;;17.80;99.90;;;;;;4869686;29;20089;-92
2022/12/27 13:45:41;;;;;;;23.33;20.45;;;17.50;99.90;;;;;;4886137;29;20032;-92
2022/12/27 13:48:20;;;;;;;21.95;18.08;;;17.30;99.90;;;;;;4884603;29;20060;-93
2022/12/27 13:51:02;;;;;;;21.02;18.92;;;17.10;99.90;;;;;;4883382;29;20169;-93
2022/12/27 13:53:40;;;;;;;24.40;20.80;;;16.90;99.90;;;;;;4898470;29;20029;-93
2022/12/27 13:56:25;;;;;;;28.83;23.15;;;16.80;99.90;;;;;;4898125;29;20044;-94
2022/12/27 13:59:31;;;;;;;34.67;24.13;;;16.70;99.90;;;;;;4884402;29;20115;-94
2022/12/27 14:02:00;;;;;;;;;;;16.60;99.90;;;;;;4876325;29;20049;-95
2022/12/27 14:04:59;;;;;;;26.70;20.58;;;16.60;99.90;;;;;;4877141;29;20408;-94
2022/12/27 14:07:46;;;;;;;25.27;20.90;;;16.60;99.90;;;;;;4869293;29;20083;-93
2022/12/27 14:10:52;;;;;;;38.83;29.70;;;16.60;99.90;;;;;;4848773;29;20045;-94
2022/12/27 14:13:41;;;;;;;23.50;20.85;;;16.70;99.90;;;;;;4880723;29;20037;-94
2022/12/27 14:16:28;;;;;;;26.08;19.85;;;16.70;99.90;;;;;;4877110;29;20049;-94
2022/12/27 14:19:26;;;;;;;18.75;16.80;;;16.70;99.90;;;;;;4870841;29;20044;-93
2022/12/27 14:22:37;;;;;;;17.90;16.05;;;16.60;99.90;;;;;;4879687;29;20036;-93
2022/12/27 14:28:11;;;;;;;25.83;20.10;;;16.50;99.90;;;;;;4898822;29;20080;-94
2022/12/27 14:30:50;;;;;;;22.85;19.40;;;16.50;99.90;;;;;;4879552;29;20029;-92
2022/12/27 14:33:32;;;;;;;18.85;17.05;;;16.40;99.90;;;;;;4865265;29;20029;-94
2022/12/27 14:36:17;;;;;;;20.20;17.60;;;16.40;99.90;;;;;;4859331;29;20033;-94
2022/12/27 14:39:17;;;;;;;19.48;17.38;;;16.30;99.90;;;;;;4860905;29;20033;-93
2022/12/27 14:42:08;;;;;;;20.63;17.10;;;16.30;99.90;;;;;;4879680;23;20090;-92
2022/12/27 14:45:13;;;;;;;21.88;18.42;;;16.20;99.90;;;;;;4879520;29;20045;-92
2022/12/27 14:48:16;;;;;;;21.30;16.92;;;16.10;99.90;;;;;;4878694;29;20136;-93
2022/12/27 14:51:04;;;;;;;21.92;18.35;;;16.00;99.90;;;;;;4864188;29;20030;-92
2022/12/27 14:53:40;;;;;;;27.83;20.45;;;16.00;99.90;;;;;;4843856;29;20041;-93
2022/12/27 14:56:32;;;;;;;24.05;19.90;;;15.90;99.90;;;;;;4849709;29;20029;-92
2022/12/27 14:59:02;;;;;;;24.13;19.98;;;15.90;99.90;;;;;;4861086;29;20038;-92
2022/12/27 15:01:53;;;;;;;29.73;20.63;;;15.80;99.90;;;;;;4869571;29;20090;-93
2022/12/27 15:04:41;;;;;;;32.47;23.10;;;15.70;99.90;;;;;;4833112;29;20103;-93
2022/12/27 15:07:49;;;;;;;28.48;22.63;;;15.60;99.90;;;;;;4846083;29;20384;-92
2022/12/27 15:10:30;;;;;;;25.63;20.85;;;15.50;99.90;;;;;;4835891;29;20029;-94
2022/12/27 15:40:46;;;;;;;40.60;28.67;;;14.80;99.90;;;;;;4867368;29;20049;-93
2022/12/27 15:43:42;;;;;;;32.75;24.42;;;14.90;99.90;;;;;;4865943;29;20041;-93
2022/12/27 15:46:35;;;;;;;34.28;23.02;;;14.90;99.90;;;;;;4865444;29;20076;-92
2022/12/27 15:49:32;;;;;;;47.40;27.15;;;14.80;99.90;;;;;;4876537;29;20036;-94
2022/12/27 15:52:20;;;;;;;37.92;25.55;;;14.80;99.90;;;;;;4884739;29;20064;-92
2022/12/27 15:55:15;;;;;;;;;;;;;;;;;;;;;
2022/12/27 15:58:45;;;;;;;34.65;24.25;;;15.10;99.90;;;;;;4900257;23;20115;-95
2022/12/27 16:01:28;;;;;;;31.58;22.38;;;15.00;99.90;;;;;;4880945;29;20131;-93
2022/12/27 16:03:57;;;;;;;26.35;21.70;;;14.80;99.90;;;;;;4890543;29;20131;-90
2022/12/27 16:06:32;;;;;;;33.72;24.83;;;14.70;99.90;;;;;;4899873;29;20024;-94
2022/12/27 16:09:24;;;;;;;80.00;42.42;;;14.60;99.90;;;;;;4886612;29;20033;-92
2022/12/27 16:12:07;;;;;;;77.53;46.15;;;14.50;99.90;;;;;;4866811;29;20033;-92
2022/12/27 16:14:38;;;;;;;79.85;46.58;;;14.50;99.90;;;;;;4864444;29;20122;-94
2022/12/27 16:17:23;;;;;;;64.07;40.72;;;14.50;99.90;;;;;;4882843;29;20033;-92
2022/12/27 16:20:16;;;;;;;62.95;40.30;;;14.40;99.90;;;;;;4910676;29;20024;-93
2022/12/27 16:22:56;;;;;;;58.28;37.58;;;14.40;99.90;;;;;;4897581;29;20036;-92
2022/12/27 16:25:40;;;;;;;63.22;39.47;;;14.30;99.90;;;;;;4918330;29;20040;-92
2022/12/27 16:28:22;;;;;;;53.87;37.87;;;14.30;99.90;;;;;;4865827;29;20040;-92
2022/12/27 16:30:55;;;;;;;55.58;37.75;;;14.30;99.90;;;;;;4884456;29;20494;-93
2022/12/27 16:33:33;;;;;;;53.22;34.33;;;14.20;99.90;;;;;;4913775;29;20032;-93
2022/12/27 16:49:22;;;;;;;62.90;38.65;;;14.00;99.90;;;;;;5617712;23;20023;31
2022/12/27 17:02:45;;;;;;;46.90;34.33;;;13.70;99.90;;;;;;5086827;23;20059;-93
2022/12/27 17:05:31;;;;;;;;;;;;;;;;;;;;;
2022/12/27 17:09:12;;;;;;;48.38;32.13;;;13.60;99.90;;;;;;5237397;23;20147;-93
2022/12/27 17:12:00;;;;;;;55.28;35.58;;;13.50;99.90;;;;;;4905653;29;20038;-91
2022/12/27 17:14:36;;;;;;;55.42;37.35;;;13.50;99.90;;;;;;4894047;29;20075;-93
2022/12/27 17:24:58;;;;;;;66.55;42.05;;;13.40;99.90;;;;;;4845467;29;20621;-93
2022/12/27 17:27:46;;;;;;;61.33;38.60;;;13.30;99.90;;;;;;4813457;29;20135;-93
2022/12/27 17:30:24;;;;;;;59.13;38.22;;;13.30;99.90;;;;;;4846088;29;20038;-93
2022/12/27 17:33:20;;;;;;;63.05;39.92;;;13.20;99.90;;;;;;4845574;29;20026;-93
2022/12/27 17:36:09;;;;;;;62.42;38.38;;;13.20;99.90;;;;;;4830044;29;20026;-92
2022/12/27 17:58:16;;;;;;;68.55;42.28;;;12.90;99.90;;;;;;4881895;29;20033;-94
2022/12/27 18:03:52;;;;;;;61.67;41.85;;;12.80;99.90;;;;;;5700694;23;20071;-92
2022/12/27 18:36:08;;;;;;;85.43;51.20;;;12.50;99.90;;;;;;5375203;23;20063;-93
2022/12/27 18:39:07;;;;;;;91.05;52.05;;;12.50;99.90;;;;;;4925929;29;20130;-93
2022/12/27 18:59:34;;;;;;;;;;;;;;;;;;;;;
2022/12/27 19:20:09;;;;;;;90.18;49.30;;;11.70;99.90;;;;;;4865290;29;20058;-94
2022/12/27 19:23:27;;;;;;;97.60;53.58;;;11.60;99.90;;;;;;4763838;30;20104;-95